createdAt,value
2022-09-27T00:02:02.682Z,8.48
2022-09-27T00:04:36.890Z,8.70
2022-09-27T00:07:11.563Z,8.90
2022-09-27T00:09:46.933Z,9.00
2022-09-27T00:12:20.950Z,8.45
2022-09-27T00:14:55.003Z,9.13
2022-09-27T00:17:29.019Z,9.90
2022-09-27T00:20:04.065Z,9.57
2022-09-27T00:22:38.577Z,9.40
2022-09-27T00:25:14.002Z,10.48
2022-09-27T00:27:47.974Z,9.25
2022-09-27T00:30:21.983Z,10.20
2022-09-27T00:32:55.963Z,9.45
2022-09-27T00:35:30.100Z,10.43
2022-09-27T00:38:04.063Z,10.60
2022-09-27T00:40:39.625Z,10.40
2022-09-27T00:43:19.101Z,10.52
2022-09-27T00:45:56.513Z,9.18
2022-09-27T00:48:33.880Z,9.90
2022-09-27T00:51:11.067Z,8.38
2022-09-27T00:53:51.699Z,11.20
2022-09-27T00:56:30.711Z,10.82
2022-09-27T00:59:10.760Z,11.10
2022-09-27T01:01:45.541Z,9.88
2022-09-27T01:04:24.255Z,10.60
2022-09-27T01:06:58.503Z,11.20
2022-09-27T01:09:32.881Z,11.80
2022-09-27T01:12:22.257Z,11.00
2022-09-27T01:15:09.701Z,10.45
2022-09-27T01:17:55.891Z,10.35
2022-09-27T01:21:09.007Z,10.48
2022-09-27T01:24:09.901Z,9.65
2022-09-27T01:27:18.175Z,10.77
2022-09-27T01:30:05.751Z,10.38
2022-09-27T01:32:52.337Z,10.32
2022-09-27T01:35:36.851Z,10.73
2022-09-27T01:38:17.825Z,10.02
2022-09-27T01:41:00.935Z,10.52
2022-09-27T01:44:00.921Z,9.65
2022-09-27T01:46:41.939Z,10.25
2022-09-27T01:49:40.921Z,9.35
2022-09-27T01:52:19.762Z,9.77
2022-09-27T01:55:01.675Z,9.63
2022-09-27T01:57:50.652Z,9.55
2022-09-27T02:00:30.963Z,9.52
2022-09-27T02:03:12.027Z,9.63
2022-09-27T02:05:49.405Z,10.20
2022-09-27T02:08:51.656Z,9.65
2022-09-27T02:11:56.639Z,11.00
2022-09-27T02:14:36.360Z,10.63
2022-09-27T02:17:20.156Z,10.35
2022-09-27T02:20:03.890Z,10.10
2022-09-27T02:22:53.187Z,9.75
2022-09-27T02:25:35.015Z,9.52
2022-09-27T02:28:15.374Z,9.63
2022-09-27T02:30:49.544Z,9.98
2022-09-27T02:33:34.792Z,9.80
2022-09-27T02:36:09.738Z,9.90
2022-09-27T02:38:45.948Z,9.05
2022-09-27T02:41:23.955Z,9.93
2022-09-27T02:44:03.013Z,9.15
2022-09-27T02:47:00.218Z,9.65
2022-09-27T02:49:52.838Z,9.50
2022-09-27T02:52:57.405Z,9.00
2022-09-27T02:55:51.067Z,9.98
2022-09-27T02:58:59.698Z,9.07
2022-09-27T03:01:56.130Z,9.75
2022-09-27T03:04:41.196Z,9.23
2022-09-27T03:07:16.069Z,10.05
2022-09-27T03:09:52.640Z,9.02
2022-09-27T03:12:28.763Z,8.40
2022-09-27T03:15:03.238Z,9.05
2022-09-27T03:18:04.183Z,9.40
2022-09-27T03:20:56.554Z,9.32
2022-09-27T03:23:32.600Z,9.50
2022-09-27T03:26:10.731Z,9.90
2022-09-27T03:28:48.796Z,8.40
2022-09-27T03:31:23.022Z,9.32
2022-09-27T03:34:23.503Z,9.18
2022-09-27T03:36:57.652Z,9.45
2022-09-27T03:39:31.849Z,9.32
2022-09-27T03:42:06.211Z,9.57
2022-09-27T03:44:42.040Z,9.65
2022-09-27T03:47:16.093Z,8.95
2022-09-27T03:49:50.658Z,8.93
2022-09-27T03:52:24.786Z,9.27
2022-09-27T03:55:02.098Z,9.63
2022-09-27T03:57:37.350Z,8.60
2022-09-27T04:00:14.573Z,9.07
2022-09-27T04:02:48.889Z,8.32
2022-09-27T04:05:31.659Z,8.00
2022-09-27T04:08:19.112Z,9.30
2022-09-27T04:10:53.139Z,9.00
2022-09-27T04:13:27.188Z,7.90
2022-09-27T04:16:05.519Z,8.85
2022-09-27T04:19:01.733Z,8.65
2022-09-27T04:22:00.511Z,8.52
2022-09-27T04:24:34.486Z,9.45
2022-09-27T04:27:26.364Z,8.40
2022-09-27T04:30:00.401Z,7.88
2022-09-27T04:32:55.829Z,9.10
2022-09-27T04:36:10.485Z,8.63
2022-09-27T04:38:48.251Z,9.02
2022-09-27T04:41:28.486Z,8.48
2022-09-27T04:44:03.230Z,10.05
2022-09-27T04:46:37.449Z,8.60
2022-09-27T04:49:12.974Z,7.93
2022-09-27T04:51:47.268Z,7.68
2022-09-27T04:54:21.339Z,8.00
2022-09-27T04:57:05.454Z,8.05
2022-09-27T04:59:40.791Z,8.88
2022-09-27T05:02:15.076Z,8.63
2022-09-27T05:05:10.099Z,8.38
2022-09-27T05:07:47.034Z,9.10
2022-09-27T05:10:32.696Z,9.98
2022-09-27T05:13:06.950Z,11.43
2022-09-27T05:15:41.116Z,10.05
2022-09-27T05:18:37.311Z,12.23
2022-09-27T05:24:07.333Z,14.02
2022-09-27T05:26:42.076Z,14.07
2022-09-27T05:29:16.330Z,13.55
2022-09-27T05:31:55.661Z,14.10
2022-09-27T05:34:31.696Z,13.63
2022-09-27T05:37:07.420Z,15.25
2022-09-27T05:39:46.344Z,14.43
2022-09-27T05:42:21.654Z,15.57
2022-09-27T05:44:55.931Z,14.82
2022-09-27T05:47:30.565Z,16.77
2022-09-27T05:50:05.921Z,16.17
2022-09-27T05:52:41.556Z,16.55
2022-09-27T05:55:16.485Z,16.73
2022-09-27T05:57:59.001Z,16.83
2022-09-27T06:00:40.075Z,15.95
2022-09-27T06:03:34.084Z,17.80
2022-09-27T06:06:27.555Z,17.60
2022-09-27T06:09:05.999Z,16.23
2022-09-27T06:11:43.060Z,16.77
2022-09-27T06:14:21.027Z,17.20
2022-09-27T06:17:21.127Z,17.60
2022-09-27T06:19:55.721Z,16.55
2022-09-27T06:22:29.977Z,15.45
2022-09-27T06:25:09.900Z,16.60
2022-09-27T06:27:56.069Z,17.30
2022-09-27T06:30:34.400Z,16.77
2022-09-27T06:33:17.481Z,16.45
2022-09-27T06:35:57.803Z,16.38
2022-09-27T06:38:33.027Z,15.60
2022-09-27T06:41:16.689Z,16.77
2022-09-27T06:44:09.429Z,15.80
2022-09-27T06:46:43.492Z,14.20
2022-09-27T06:50:03.962Z,13.38
2022-09-27T06:52:38.427Z,14.77
2022-09-27T06:55:12.689Z,14.75
2022-09-27T06:58:05.726Z,14.43
2022-09-27T07:00:39.875Z,15.48
2022-09-27T07:03:41.740Z,14.27
2022-09-27T07:06:37.700Z,13.13
2022-09-27T07:09:23.035Z,14.52
2022-09-27T07:11:57.757Z,14.15
2022-09-27T07:14:34.322Z,13.77
2022-09-27T07:17:09.414Z,14.40
2022-09-27T07:19:47.500Z,13.52
2022-09-27T07:22:21.829Z,13.85
2022-09-27T07:25:02.077Z,12.98
2022-09-27T07:27:38.574Z,13.27
2022-09-27T07:30:18.055Z,12.15
2022-09-27T07:32:59.279Z,12.15
2022-09-27T07:35:33.992Z,12.40
2022-09-27T07:38:10.815Z,11.82
2022-09-27T07:40:45.484Z,11.40
2022-09-27T07:43:19.872Z,10.63
2022-09-27T07:45:58.192Z,12.13
2022-09-27T07:48:53.622Z,11.80
2022-09-27T07:51:46.361Z,10.80
2022-09-27T07:54:37.673Z,11.90
2022-09-27T07:57:24.335Z,11.13
2022-09-27T08:00:00.773Z,11.05
2022-09-27T08:02:36.668Z,10.63
2022-09-27T08:05:12.005Z,11.88
2022-09-27T08:07:46.240Z,15.05
2022-09-27T08:10:21.145Z,16.35
2022-09-27T08:12:55.267Z,20.15
2022-09-27T08:15:29.685Z,24.83
2022-09-27T08:18:06.424Z,26.48
2022-09-27T08:21:09.688Z,25.50
2022-09-27T08:23:54.231Z,23.92
2022-09-27T08:26:39.728Z,24.10
2022-09-27T08:29:27.087Z,23.70
2022-09-27T08:32:02.787Z,24.27
2022-09-27T08:34:38.756Z,24.58
2022-09-27T08:37:13.112Z,25.05
2022-09-27T08:39:48.227Z,25.98
2022-09-27T08:42:35.189Z,25.63
2022-09-27T08:45:17.976Z,23.98
2022-09-27T08:47:55.535Z,21.17
2022-09-27T08:50:38.937Z,22.70
2022-09-27T08:53:22.148Z,20.60
2022-09-27T08:55:58.683Z,19.92
2022-09-27T08:58:47.274Z,19.80
2022-09-27T09:01:31.617Z,17.55
2022-09-27T09:04:36.901Z,19.08
2022-09-27T09:07:23.354Z,18.02
2022-09-27T09:10:05.049Z,17.73
2022-09-27T09:12:53.529Z,17.20
2022-09-27T09:15:58.381Z,17.27
2022-09-27T09:18:53.588Z,16.13
2022-09-27T09:21:56.109Z,17.33
2022-09-27T09:24:51.631Z,16.95
2022-09-27T09:27:38.918Z,15.80
2022-09-27T09:30:21.891Z,17.27
2022-09-27T09:33:16.015Z,17.65
2022-09-27T09:35:58.941Z,15.80
2022-09-27T09:38:40.976Z,17.35
2022-09-27T09:41:24.045Z,16.85
2022-09-27T09:44:02.609Z,16.15
2022-09-27T09:46:45.381Z,15.27
2022-09-27T09:49:25.540Z,15.67
2022-09-27T09:52:08.723Z,15.65
2022-09-27T09:54:47.965Z,15.70
2022-09-27T09:57:27.062Z,14.63
2022-09-27T10:00:04.481Z,15.13
2022-09-27T10:02:52.481Z,14.32
2022-09-27T10:05:30.400Z,13.27
2022-09-27T10:08:17.028Z,12.55
2022-09-27T10:10:52.569Z,13.80
2022-09-27T10:13:46.378Z,13.95
2022-09-27T10:16:24.236Z,13.55
2022-09-27T10:19:04.104Z,13.35
2022-09-27T10:21:45.420Z,13.27
2022-09-27T10:24:21.325Z,14.02
2022-09-27T10:27:01.153Z,13.27
2022-09-27T10:29:40.403Z,13.00
2022-09-27T10:32:31.531Z,12.50
2022-09-27T10:35:38.307Z,11.65
2022-09-27T10:38:27.042Z,11.93
2022-09-27T10:41:24.939Z,12.07
2022-09-27T10:44:25.578Z,12.10
2022-09-27T10:47:23.020Z,11.55
2022-09-27T10:50:45.855Z,11.70
2022-09-27T10:53:34.086Z,11.00
2022-09-27T10:56:24.152Z,11.00
2022-09-27T10:59:00.174Z,12.13
2022-09-27T11:01:46.046Z,10.18
2022-09-27T11:04:31.789Z,10.38
2022-09-27T11:07:20.227Z,11.38
2022-09-27T11:10:25.298Z,9.48
2022-09-27T11:13:14.486Z,10.60
2022-09-27T11:16:06.510Z,9.57
2022-09-27T11:18:51.007Z,9.52
2022-09-27T11:24:27.221Z,10.80
2022-09-27T11:27:11.094Z,9.95
2022-09-27T11:30:02.591Z,10.50
2022-09-27T11:33:22.347Z,9.52
2022-09-27T11:36:06.413Z,8.85
2022-09-27T11:41:42.110Z,11.05
2022-09-27T11:44:37.964Z,9.82
2022-09-27T11:47:19.767Z,9.70
2022-09-27T11:50:20.947Z,9.60
2022-09-27T11:53:08.868Z,8.88
2022-09-27T11:55:51.275Z,9.95
2022-09-27T11:58:34.593Z,10.15
2022-09-27T12:01:28.883Z,8.90
2022-09-27T12:04:25.559Z,9.13
2022-09-27T12:07:07.061Z,9.07
2022-09-27T12:09:47.190Z,9.00
2022-09-27T12:12:25.765Z,9.15
2022-09-27T12:15:07.021Z,8.88
2022-09-27T12:17:45.658Z,8.20
2022-09-27T12:20:24.588Z,7.70
2022-09-27T12:23:03.180Z,8.38
2022-09-27T12:25:58.788Z,9.20
2022-09-27T12:28:42.356Z,9.55
2022-09-27T12:31:31.031Z,8.50
2022-09-27T12:34:19.870Z,8.88
2022-09-27T12:37:00.496Z,9.00
2022-09-27T12:39:44.081Z,8.60
2022-09-27T12:42:34.043Z,9.50
2022-09-27T12:45:15.411Z,8.77
2022-09-27T12:48:04.713Z,9.02
2022-09-27T12:50:44.371Z,8.68
2022-09-27T12:53:23.896Z,9.20
2022-09-27T12:56:33.891Z,9.88
2022-09-27T12:59:40.909Z,10.15
2022-09-27T13:03:11.174Z,9.60
2022-09-27T13:05:58.682Z,9.40
2022-09-27T13:08:54.196Z,9.52
2022-09-27T13:11:41.794Z,10.38
2022-09-27T13:14:20.831Z,9.25
2022-09-27T13:16:56.107Z,10.60
2022-09-27T13:19:44.281Z,10.82
2022-09-27T13:22:38.751Z,10.32
2022-09-27T13:25:54.850Z,10.50
2022-09-27T13:29:02.210Z,10.60
2022-09-27T13:32:22.764Z,10.20
2022-09-27T13:35:20.294Z,10.57
2022-09-27T13:38:00.265Z,10.38
2022-09-27T13:40:45.739Z,11.18
2022-09-27T13:43:59.254Z,10.95
2022-09-27T13:46:53.381Z,10.45
2022-09-27T13:49:32.955Z,10.70
2022-09-27T13:52:23.605Z,11.00
2022-09-27T13:55:41.730Z,11.15
2022-09-27T13:58:45.165Z,10.65
2022-09-27T14:01:46.875Z,11.25
2022-09-27T14:04:27.105Z,10.70
2022-09-27T14:07:04.059Z,12.68
2022-09-27T14:09:42.597Z,12.00
2022-09-27T14:12:41.199Z,11.73
2022-09-27T14:15:22.781Z,12.60
2022-09-27T14:17:58.975Z,11.93
2022-09-27T14:20:40.793Z,11.60
2022-09-27T14:23:26.993Z,36.83
2022-09-27T14:26:03.813Z,61.17
2022-09-27T14:28:43.795Z,38.88
2022-09-27T14:31:29.608Z,54.15
2022-09-27T14:34:10.039Z,83.60
2022-09-27T14:37:04.657Z,62.17
2022-09-27T14:39:45.566Z,54.40
2022-09-27T14:42:39.310Z,64.32
2022-09-27T14:45:22.375Z,61.30
2022-09-27T14:47:56.389Z,57.08
2022-09-27T14:50:32.193Z,55.53
2022-09-27T14:53:23.359Z,52.05
2022-09-27T14:55:58.586Z,45.17
2022-09-27T14:58:46.999Z,44.20
2022-09-27T15:01:27.024Z,39.05
2022-09-27T15:04:07.936Z,38.67
2022-09-27T15:06:43.844Z,36.03
2022-09-27T15:09:19.871Z,34.95
2022-09-27T15:11:57.096Z,33.80
2022-09-27T15:14:34.604Z,21.67
2022-09-27T15:17:15.763Z,26.88
2022-09-27T15:20:04.772Z,28.60
2022-09-27T15:22:45.195Z,28.20
2022-09-27T15:25:34.963Z,26.67
2022-09-27T15:28:18.172Z,26.70
2022-09-27T15:30:56.971Z,24.35
2022-09-27T15:33:34.035Z,20.80
2022-09-27T15:36:10.587Z,23.02
2022-09-27T15:38:47.571Z,20.48
2022-09-27T15:41:22.285Z,20.55
2022-09-27T15:43:56.497Z,20.17
2022-09-27T15:46:37.130Z,21.05
2022-09-27T15:49:24.059Z,20.08
2022-09-27T15:51:59.569Z,18.98
2022-09-27T15:54:35.971Z,18.00
2022-09-27T15:57:13.707Z,19.50
2022-09-27T15:59:47.614Z,18.95
2022-09-27T16:02:23.034Z,17.35
2022-09-27T16:04:57.054Z,18.70
2022-09-27T16:07:30.996Z,18.23
2022-09-27T16:10:11.475Z,18.80
2022-09-27T16:12:45.942Z,16.48
2022-09-27T16:15:20.239Z,17.55
2022-09-27T16:17:56.695Z,15.75
2022-09-27T16:20:32.278Z,17.60
2022-09-27T16:23:06.814Z,17.05
2022-09-27T16:25:41.026Z,16.42
2022-09-27T16:28:15.199Z,15.90
2022-09-27T16:30:49.355Z,15.75
2022-09-27T16:33:24.741Z,17.00
2022-09-27T16:35:58.934Z,16.08
2022-09-27T16:38:33.013Z,14.93
2022-09-27T16:41:07.357Z,15.20
2022-09-27T16:43:41.478Z,15.40
2022-09-27T16:46:19.337Z,15.00
2022-09-27T16:48:57.297Z,14.43
2022-09-27T16:51:48.900Z,14.02
2022-09-27T16:54:23.088Z,14.40
2022-09-27T16:56:57.812Z,14.02
2022-09-27T16:59:32.607Z,14.63
2022-09-27T17:02:07.277Z,13.27
2022-09-27T17:04:43.303Z,15.52
2022-09-27T17:07:17.708Z,14.07
2022-09-27T17:09:52.129Z,13.98
2022-09-27T17:12:26.580Z,13.80
2022-09-27T17:15:01.108Z,14.07
2022-09-27T17:17:35.281Z,13.85
2022-09-27T17:20:13.848Z,14.15
2022-09-27T17:22:48.582Z,12.90
2022-09-27T17:25:23.223Z,13.25
2022-09-27T17:27:58.880Z,12.90
2022-09-27T17:30:35.097Z,13.15
2022-09-27T17:33:09.882Z,13.18
2022-09-27T17:35:48.045Z,13.43
2022-09-27T17:38:22.768Z,12.90
2022-09-27T17:41:08.774Z,12.05
2022-09-27T17:43:46.834Z,12.35
2022-09-27T17:46:23.407Z,12.77
2022-09-27T17:49:15.426Z,11.68
2022-09-27T17:51:53.457Z,12.98
2022-09-27T17:54:28.524Z,12.55
2022-09-27T17:57:02.893Z,11.95
2022-09-27T17:59:37.176Z,12.60
2022-09-27T18:02:11.482Z,12.93
2022-09-27T18:04:46.493Z,11.73
2022-09-27T18:07:22.508Z,11.65
2022-09-27T18:09:57.342Z,11.77
2022-09-27T18:12:33.425Z,12.00
2022-09-27T18:15:09.349Z,13.02
2022-09-27T18:17:46.243Z,12.38
2022-09-27T18:20:20.854Z,12.48
2022-09-27T18:22:57.051Z,12.93
2022-09-27T18:25:39.419Z,13.75
2022-09-27T18:28:14.876Z,12.57
2022-09-27T18:30:50.427Z,12.20
2022-09-27T18:33:25.738Z,12.05
2022-09-27T18:36:05.441Z,11.75
2022-09-27T18:38:41.847Z,11.18
2022-09-27T18:41:19.237Z,12.73
2022-09-27T18:43:57.354Z,11.57
2022-09-27T18:46:35.943Z,11.68
2022-09-27T18:49:12.627Z,11.95
2022-09-27T18:51:47.619Z,12.38
2022-09-27T18:54:24.133Z,12.88
2022-09-27T18:57:00.541Z,11.57
2022-09-27T18:59:35.742Z,13.45
2022-09-27T19:02:12.489Z,11.95
2022-09-27T19:04:46.786Z,11.60
2022-09-27T19:07:21.077Z,11.45
2022-09-27T19:09:56.747Z,10.90
2022-09-27T19:12:30.982Z,13.15
2022-09-27T19:15:05.989Z,12.27
2022-09-27T19:17:40.639Z,11.80
2022-09-27T19:20:15.521Z,11.98
2022-09-27T19:22:49.812Z,12.25
2022-09-27T19:25:25.399Z,12.18
2022-09-27T19:27:59.615Z,11.32
2022-09-27T19:30:34.013Z,11.38
2022-09-27T19:33:08.097Z,12.63
2022-09-27T19:35:42.469Z,11.63
2022-09-27T19:38:16.552Z,12.05
2022-09-27T19:40:56.468Z,11.90
2022-09-27T19:43:31.215Z,11.48
2022-09-27T19:46:06.358Z,11.25
2022-09-27T19:48:40.895Z,12.68
2022-09-27T19:51:17.011Z,12.40
2022-09-27T19:53:51.993Z,11.57
2022-09-27T19:56:27.811Z,12.00
2022-09-27T19:59:06.894Z,12.05
2022-09-27T20:01:42.208Z,12.10
2022-09-27T20:04:16.369Z,11.55
2022-09-27T20:06:50.454Z,11.30
2022-09-27T20:09:25.081Z,11.00
2022-09-27T20:12:00.566Z,10.90
2022-09-27T20:14:34.970Z,10.32
2022-09-27T20:17:09.707Z,10.10
2022-09-27T20:19:44.056Z,10.90
2022-09-27T20:22:18.094Z,11.13
2022-09-27T20:24:52.194Z,9.68
2022-09-27T20:27:27.618Z,9.85
2022-09-27T20:30:02.787Z,8.93
2022-09-27T20:32:37.249Z,10.23
2022-09-27T20:35:11.682Z,10.07
2022-09-27T20:37:45.677Z,9.52
2022-09-27T20:40:19.822Z,10.68
2022-09-27T20:42:55.134Z,10.25
2022-09-27T20:45:29.101Z,10.20
2022-09-27T20:48:03.413Z,11.07
2022-09-27T20:50:37.318Z,10.57
2022-09-27T20:53:11.603Z,10.25
2022-09-27T20:55:45.464Z,10.10
2022-09-27T21:00:54.511Z,10.70
2022-09-27T21:03:28.387Z,10.73
2022-09-27T21:06:02.532Z,10.93
2022-09-27T21:08:36.516Z,9.98
2022-09-27T21:11:12.777Z,9.73
2022-09-27T21:13:49.517Z,9.98
2022-09-27T21:16:25.388Z,10.20
2022-09-27T21:18:59.689Z,10.13
2022-09-27T21:21:33.593Z,8.48
2022-09-27T21:26:41.157Z,9.43
2022-09-27T21:29:16.927Z,9.40
2022-09-27T21:31:50.898Z,9.20
2022-09-27T21:34:24.745Z,8.20
2022-09-27T21:39:32.768Z,9.70
2022-09-27T21:42:07.412Z,8.75
2022-09-27T21:44:43.182Z,8.65
2022-09-27T21:47:17.097Z,8.63
2022-09-27T21:49:51.061Z,7.90
2022-09-27T21:52:25.923Z,8.07
2022-09-27T21:55:00.067Z,8.15
2022-09-27T21:57:33.999Z,7.50
2022-09-27T22:00:11.473Z,7.47
2022-09-27T22:02:45.437Z,8.02
2022-09-27T22:05:20.596Z,7.03
2022-09-27T22:07:54.585Z,6.78
2022-09-27T22:10:28.939Z,7.82
2022-09-27T22:13:03.129Z,7.40
2022-09-27T22:15:39.568Z,6.90
2022-09-27T22:18:13.714Z,7.53
2022-09-27T22:20:48.195Z,6.63
2022-09-27T22:23:22.131Z,7.43
2022-09-27T22:25:56.238Z,7.75
2022-09-27T22:28:30.193Z,6.57
2022-09-27T22:31:07.679Z,6.47
2022-09-27T22:33:41.969Z,7.03
2022-09-27T22:36:16.165Z,7.03
2022-09-27T22:38:51.756Z,6.63
2022-09-27T22:41:26.416Z,6.13
2022-09-27T22:44:01.596Z,6.63
2022-09-27T22:46:37.974Z,6.25
2022-09-27T22:49:12.276Z,6.53
2022-09-27T22:51:46.613Z,6.28
2022-09-27T22:54:21.539Z,5.55
2022-09-27T22:56:57.562Z,5.63
2022-09-27T22:59:31.842Z,5.22
2022-09-27T23:02:07.276Z,5.63
2022-09-27T23:04:42.072Z,6.20
2022-09-27T23:07:16.124Z,6.07
2022-09-27T23:09:50.480Z,5.30
2022-09-27T23:12:24.778Z,5.78
2022-09-27T23:14:59.061Z,5.50
2022-09-27T23:17:34.791Z,5.22
2022-09-27T23:20:09.792Z,4.78
2022-09-27T23:22:43.764Z,5.68
2022-09-27T23:25:18.044Z,5.93
2022-09-27T23:27:53.019Z,4.50
2022-09-27T23:30:29.147Z,5.32
2022-09-27T23:33:04.572Z,4.35
2022-09-27T23:35:38.569Z,5.03
2022-09-27T23:38:13.913Z,4.70
2022-09-27T23:40:48.440Z,5.18
2022-09-27T23:43:22.426Z,4.65
2022-09-27T23:45:57.545Z,4.82
2022-09-27T23:48:33.152Z,4.60
2022-09-27T23:51:09.123Z,4.80
2022-09-27T23:53:44.655Z,5.40
2022-09-27T23:56:18.959Z,4.47
2022-09-27T23:58:54.381Z,4.68
